createdAt,value
2019-01-03T00:00:41.667Z,101768.02
2019-01-03T00:05:56.093Z,101773.77
2019-01-03T00:11:19.302Z,101775.75
2019-01-03T00:16:41.277Z,101780.48
2019-01-03T00:22:02.502Z,101777.72
2019-01-03T00:27:16.413Z,101785.23
2019-01-03T00:32:37.925Z,101788.01
2019-01-03T00:37:59.420Z,101784.22
2019-01-03T00:43:07.308Z,101794.52
2019-01-03T00:48:30.722Z,101794.89
2019-01-03T00:53:35.826Z,101801.02
2019-01-03T00:58:40.930Z,101802.00
2019-01-03T01:03:46.051Z,101808.94
2019-01-03T01:08:53.690Z,101821.41
2019-01-03T01:14:01.539Z,101825.95
2019-01-03T01:19:09.088Z,101829.52
2019-01-03T01:24:30.350Z,101836.23
2019-01-03T01:29:50.480Z,101846.30
2019-01-03T01:34:55.584Z,101846.30
2019-01-03T01:40:16.964Z,101854.04
2019-01-03T01:45:38.237Z,101855.20
2019-01-03T01:50:43.353Z,101857.77
2019-01-03T01:55:54.343Z,101861.74
2019-01-03T02:01:15.650Z,101871.44
2019-01-03T02:06:20.763Z,101871.02
2019-01-03T02:11:42.379Z,101864.30
2019-01-03T02:16:47.480Z,101855.77
2019-01-03T02:21:58.543Z,101847.23
2019-01-03T02:27:15.649Z,101838.70
2019-01-03T02:32:29.694Z,101840.31
2019-01-03T02:37:34.803Z,101836.95
2019-01-03T02:42:54.757Z,101833.97
2019-01-03T02:48:08.857Z,101829.01
2019-01-03T02:53:26.068Z,101825.44
2019-01-03T02:58:34.020Z,101819.89
2019-01-03T03:03:48.408Z,101831.56
2019-01-03T03:08:56.557Z,101842.06
2019-01-03T03:14:01.663Z,101835.72
2019-01-03T03:19:15.503Z,101829.38
2019-01-03T03:24:20.630Z,101827.19
2019-01-03T03:29:43.882Z,101831.14
2019-01-03T03:35:03.723Z,101825.59
2019-01-03T03:40:25.426Z,101833.91
2019-01-03T03:45:36.029Z,101835.11
2019-01-03T03:50:47.169Z,101831.75
2019-01-03T03:55:52.276Z,101840.22
2019-01-03T04:00:57.379Z,101840.22
2019-01-03T04:06:02.491Z,101837.67
2019-01-03T04:11:19.350Z,101834.47
2019-01-03T04:16:33.547Z,101831.70
2019-01-03T04:21:50.302Z,101824.77
2019-01-03T04:27:04.264Z,101835.85
2019-01-03T04:32:21.087Z,101837.02
2019-01-03T04:37:42.791Z,101833.45
2019-01-03T04:43:02.902Z,101843.16
2019-01-03T04:48:26.098Z,101840.97
2019-01-03T04:53:43.374Z,101845.71
2019-01-03T04:58:50.959Z,101843.37
2019-01-03T05:04:02.178Z,101846.56
2019-01-03T05:09:19.890Z,101838.25
2019-01-03T05:14:37.061Z,101834.68
2019-01-03T05:19:54.293Z,101833.72
2019-01-03T05:24:59.400Z,101835.48
2019-01-03T05:30:04.531Z,101846.20
2019-01-03T05:35:09.644Z,101839.45
2019-01-03T05:40:26.816Z,101841.05
2019-01-03T05:45:31.944Z,101838.86
2019-01-03T05:50:46.205Z,101833.16
2019-01-03T05:55:54.252Z,101833.75
2019-01-03T06:01:02.249Z,101835.34
2019-01-03T06:06:16.584Z,101839.87
2019-01-03T06:11:24.105Z,101832.95
2019-01-03T06:16:31.863Z,101832.95
2019-01-03T06:21:39.713Z,101833.75
2019-01-03T06:26:59.884Z,101836.89
2019-01-03T06:32:10.707Z,101832.37
2019-01-03T06:37:15.825Z,101831.56
2019-01-03T06:42:37.105Z,101831.78
2019-01-03T06:48:00.168Z,101824.27
2019-01-03T06:53:07.945Z,101818.72
2019-01-03T06:58:15.604Z,101825.65
2019-01-03T07:03:32.775Z,101824.85
2019-01-03T07:08:53.941Z,101836.52
2019-01-03T07:13:59.034Z,101835.72
2019-01-03T07:19:10.319Z,101842.87
2019-01-03T07:24:24.410Z,101850.97
2019-01-03T07:29:32.317Z,101849.95
2019-01-03T07:34:39.954Z,101867.17
2019-01-03T07:40:01.327Z,101887.95
2019-01-03T07:45:22.515Z,101894.11
2019-01-03T07:50:42.331Z,101894.48
2019-01-03T07:55:50.152Z,101899.59
2019-01-03T08:00:55.279Z,101898.97
2019-01-03T08:06:00.461Z,101898.97
2019-01-03T08:11:14.035Z,101905.09
2019-01-03T08:16:35.034Z,101916.00
2019-01-03T08:21:40.160Z,101909.95
2019-01-03T08:26:48.215Z,101907.83
2019-01-03T08:31:58.771Z,101908.02
2019-01-03T08:37:12.649Z,101905.98
2019-01-03T08:42:33.146Z,101905.32
2019-01-03T08:47:47.485Z,101900.47
2019-01-03T08:53:10.856Z,101898.17
2019-01-03T08:58:30.723Z,101907.54
2019-01-03T09:03:52.306Z,101892.59
2019-01-03T09:09:13.624Z,101904.31
2019-01-03T09:14:24.218Z,101906.14
2019-01-03T09:19:41.003Z,101908.14
2019-01-03T09:24:58.333Z,101905.22
2019-01-03T09:30:03.444Z,101900.11
2019-01-03T09:35:23.621Z,101901.53
2019-01-03T09:40:43.674Z,101904.52
2019-01-03T09:45:47.135Z,101896.64
2019-01-03T09:50:50.605Z,101891.90
2019-01-03T09:55:54.079Z,101888.76
2019-01-03T10:00:57.538Z,101879.86
2019-01-03T10:06:01.021Z,101872.34
2019-01-03T10:11:04.483Z,101865.42
2019-01-03T10:16:07.954Z,101862.83
2019-01-03T10:21:11.414Z,101856.12
2019-01-03T10:26:14.875Z,101849.41
2019-01-03T10:31:18.347Z,101849.84
2019-01-03T10:36:24.403Z,101851.22
2019-01-03T10:41:27.046Z,101872.22
2019-01-03T10:46:30.506Z,101877.77
2019-01-03T10:51:33.973Z,101881.92
2019-01-03T10:56:37.446Z,101880.53
2019-01-03T11:01:40.908Z,101884.69
2019-01-03T11:06:44.377Z,101870.84
2019-01-03T11:11:47.844Z,101866.09
2019-01-03T11:16:51.308Z,101841.16
2019-01-03T11:21:54.772Z,101833.83
2019-01-03T11:26:58.237Z,101831.05
2019-01-03T11:32:01.700Z,101827.52
2019-01-03T11:37:05.169Z,101828.28
2019-01-03T11:42:08.636Z,101829.48
2019-01-03T11:47:12.118Z,101826.89
2019-01-03T11:52:15.583Z,101830.68
2019-01-03T11:57:19.081Z,101822.58
2019-01-03T12:02:25.736Z,101820.61
2019-01-03T12:07:27.747Z,101825.56
2019-01-03T12:12:31.228Z,101822.64
2019-01-03T12:17:34.717Z,101824.63
2019-01-03T12:22:38.201Z,101820.67
2019-01-03T12:27:41.690Z,101815.15
2019-01-03T12:32:45.167Z,101816.11
2019-01-03T12:37:48.652Z,101821.49
2019-01-03T12:42:52.127Z,101823.31
2019-01-03T12:47:55.607Z,101830.05
2019-01-03T12:52:59.088Z,101827.70
2019-01-03T12:58:02.580Z,101820.98
2019-01-03T13:03:06.067Z,101821.41
2019-01-03T13:08:09.542Z,101826.61
2019-01-03T13:13:13.041Z,101824.48
2019-01-03T13:18:16.524Z,101821.09
2019-01-03T13:23:20.005Z,101822.69
2019-01-03T13:28:23.489Z,101823.48
2019-01-03T13:33:26.988Z,101825.88
2019-01-03T13:38:30.468Z,101829.88
2019-01-03T13:43:33.955Z,101827.70
2019-01-03T13:48:37.435Z,101832.07
2019-01-03T13:53:40.918Z,101837.21
2019-01-03T13:58:44.400Z,101839.59
2019-01-03T14:03:47.884Z,101846.91
2019-01-03T14:08:51.364Z,101858.65
2019-01-03T14:13:54.838Z,101868.36
2019-01-03T14:18:58.324Z,101879.45
2019-01-03T14:24:01.808Z,101882.86
2019-01-03T14:29:05.293Z,101887.20
2019-01-03T14:34:08.772Z,101883.84
2019-01-03T14:39:12.254Z,101878.88
2019-01-03T14:44:15.749Z,101888.19
2019-01-03T14:49:19.234Z,101873.53
2019-01-03T14:54:22.729Z,101879.28
2019-01-03T14:59:26.220Z,101884.25
2019-01-03T15:04:29.701Z,101880.89
2019-01-03T15:09:33.174Z,101878.88
2019-01-03T15:14:36.657Z,101884.43
2019-01-03T15:19:40.140Z,101881.08
2019-01-03T15:24:43.625Z,101888.80
2019-01-03T15:29:47.105Z,101894.56
2019-01-03T15:34:50.609Z,101886.89
2019-01-03T15:39:54.103Z,101894.35
2019-01-03T15:44:57.570Z,101902.30
2019-01-03T15:50:01.049Z,101913.98
2019-01-03T15:55:05.051Z,101920.17
2019-01-03T16:00:10.155Z,101932.44
2019-01-03T16:05:13.624Z,101934.41
2019-01-03T16:10:17.138Z,101937.02
2019-01-03T16:15:20.611Z,101936.01
2019-01-03T16:20:24.074Z,101936.81
2019-01-03T16:25:27.540Z,101933.82
2019-01-03T16:30:31.006Z,101937.83
2019-01-03T16:35:34.478Z,101929.09
2019-01-03T16:40:37.954Z,101937.23
2019-01-03T16:45:41.418Z,101926.54
2019-01-03T16:50:44.879Z,101926.04
2019-01-03T16:55:48.347Z,101929.16
2019-01-03T17:00:51.817Z,101923.61
2019-01-03T17:05:55.288Z,101931.37
2019-01-03T17:10:58.746Z,101939.91
2019-01-03T17:16:02.221Z,101931.98
2019-01-03T17:21:05.716Z,101931.98
2019-01-03T17:26:09.174Z,101929.03
2019-01-03T17:31:12.639Z,101930.59
2019-01-03T17:36:16.136Z,101937.53
2019-01-03T17:41:19.602Z,101930.02
2019-01-03T17:46:23.071Z,101932.20
2019-01-03T17:51:26.531Z,101924.67
2019-01-03T17:56:29.997Z,101926.06
2019-01-03T18:01:33.466Z,101922.92
2019-01-03T18:06:36.924Z,101910.86
2019-01-03T18:11:40.393Z,101911.08
2019-01-03T18:16:43.862Z,101913.63
2019-01-03T18:21:47.335Z,101915.98
2019-01-03T18:26:50.977Z,101917.95
2019-01-03T18:31:54.443Z,101916.73
2019-01-03T18:36:57.911Z,101922.28
2019-01-03T18:42:01.386Z,101926.44
2019-01-03T18:47:04.878Z,101927.42
2019-01-03T18:52:08.349Z,101929.98
2019-01-03T18:57:11.827Z,101934.70
2019-01-03T19:02:15.353Z,101934.27
2019-01-03T19:07:18.823Z,101940.19
2019-01-03T19:12:22.289Z,101934.47
2019-01-03T19:17:25.759Z,101946.52
2019-01-03T19:22:29.223Z,101952.22
2019-01-03T19:27:32.697Z,101950.84
2019-01-03T19:32:36.169Z,101954.78
2019-01-03T19:37:39.636Z,101940.52
2019-01-03T19:42:44.240Z,101946.65
2019-01-03T19:47:47.709Z,101950.22
2019-01-03T19:52:51.183Z,101950.98
2019-01-03T19:57:54.648Z,101957.52
2019-01-03T20:02:58.117Z,101968.03
2019-01-03T20:08:01.584Z,101983.07
2019-01-03T20:13:05.049Z,101985.41
2019-01-03T20:18:08.518Z,101984.23
2019-01-03T20:23:11.979Z,101985.41
2019-01-03T20:28:15.454Z,101972.50
2019-01-03T20:33:18.921Z,101970.94
2019-01-03T20:38:22.385Z,101982.39
2019-01-03T20:43:25.853Z,101981.81
2019-01-03T20:48:29.322Z,101971.09
2019-01-03T20:53:32.774Z,101973.86
2019-01-03T20:58:36.241Z,101963.72
2019-01-03T21:03:39.708Z,101970.07
2019-01-03T21:08:43.178Z,101963.14
2019-01-03T21:13:46.649Z,101961.16
2019-01-03T21:18:50.115Z,101961.75
2019-01-03T21:23:54.470Z,101964.31
2019-01-03T21:28:57.932Z,101966.28
2019-01-03T21:34:01.396Z,101964.09
2019-01-03T21:39:06.372Z,101957.75
2019-01-03T21:44:09.846Z,101961.91
2019-01-03T21:49:13.312Z,101966.66
2019-01-03T21:54:18.836Z,101969.42
2019-01-03T21:59:21.971Z,101970.04
2019-01-03T22:04:25.454Z,101957.34
2019-01-03T22:09:28.905Z,101960.92
2019-01-03T22:14:32.367Z,101958.95
2019-01-03T22:19:35.837Z,101961.51
2019-01-03T22:24:39.304Z,101960.92
2019-01-03T22:29:42.767Z,101956.17
2019-01-03T22:34:46.254Z,101963.11
2019-01-03T22:39:49.717Z,101960.13
2019-01-03T22:44:54.203Z,101964.06
2019-01-03T22:49:57.719Z,101962.67
2019-01-03T22:55:01.186Z,101977.92
2019-01-03T23:00:27.078Z,101972.16
2019-01-03T23:05:30.544Z,101984.05
2019-01-03T23:10:34.011Z,101964.55
2019-01-03T23:15:37.478Z,101963.48
2019-01-03T23:20:40.938Z,101964.65
2019-01-03T23:25:44.404Z,101955.53
2019-01-03T23:30:47.884Z,101945.83
2019-01-03T23:35:51.350Z,101945.83
2019-01-03T23:40:54.819Z,101954.95
2019-01-03T23:45:58.282Z,101959.91
2019-01-03T23:51:01.748Z,101965.23
2019-01-03T23:56:05.383Z,101964.65
